Latest Coastal Weather Observations for Smithton

IDV60701

Issued at 12:45 am EST Thursday 17 April 2014 (issued every 10 minutes, with the page automatically refreshed every 10 minutes)

About coastal observations | Map of coastal stations | Coastal observations for VIC | Marine services | Other Formats
Station Details ID: 091292 Name: SMITHTON AERODROME Lat: -40.83 Lon: 145.08 Height: 7.5 m
Data from the previous 72 hours. | See also: Recent months at Smithton
Date/Time
EST
Temp

°C
Wind Pressure Rain
since 9am
mm
Weather Cloud Vis
km
Sea
Height
m
Swell
Dir
 
Speed
knots
Gust
knots
hPa Trend Height
m
Period
s
Dir
17/12:30am 9.8 E 4 5 1019.9 - 0.0 - - - - - - -
17/12:00am 9.6 E 5 6 1020.0 - 0.0 - - - - - - -
 
Date/Time
EST
Temp

°C
Wind Pressure Rain
since 9am
mm
Weather Cloud Vis
km
Sea
Height
m
Swell
Dir
 
Speed
knots
Gust
knots
hPa Trend Height
m
Period
s
Dir
16/11:30pm 10.4 E 4 5 1020.3 - 0.0 - - - - - - -
16/11:00pm 10.2 CALM 0 0 1020.2 - 0.0 - - - - - - -
16/10:30pm 10.4 E 3 5 1020.3 - 0.0 - - - - - - -
16/10:00pm 12.1 E 6 6 1020.3 - 0.0 - - - - - - -
16/09:30pm 13.2 E 5 6 1020.5 - 0.0 - - - - - - -
16/09:00pm 13.5 E 5 6 1020.2 - 0.0 - - - - - - -
16/08:30pm 13.9 E 6 8 1019.9 - 0.0 - - - - - - -
16/08:00pm 14.8 NNE 7 10 1019.9 - 0.0 - - - - - - -
16/07:30pm 12.9 ENE 6 9 1020.0 - 0.0 - - - - - - -
16/07:00pm 12.9 ENE 6 7 1020.2 - 0.0 - - - - - - -
16/06:30pm 13.1 ENE 5 6 1020.2 - 0.0 - - - - - - -
16/06:00pm 12.7 ENE 5 6 1020.0 - 0.0 - - - - - - -
16/05:30pm 14.9 ENE 6 8 1020.2 - 0.0 - - - - - - -
16/05:00pm 16.7 ENE 7 9 1020.2 - 0.0 - - - - - - -
16/04:30pm 16.9 NE 9 11 1020.0 - 0.0 - - - - - - -
16/04:00pm 16.8 NE 11 13 1019.9 - 0.0 - - - - - - -
16/03:30pm 17.5 ENE 11 14 1019.9 - 0.0 - - - - - - -
16/03:00pm 17.9 ENE 11 15 1020.0 - 0.0 - - - - - - -
16/02:30pm 17.2 ENE 10 14 1020.2 - 0.0 - - - - - - -
16/02:00pm 17.0 ENE 12 15 1020.2 - 0.0 - - - - - - -
16/01:30pm 17.0 ENE 13 16 1020.5 - 0.0 - - - - - - -
16/01:00pm 17.2 ENE 12 18 1020.8 - 0.0 - - - - - - -
16/12:30pm 16.9 NE 11 15 1021.3 - 0.0 - - - - - - -
16/12:00pm 17.2 ENE 11 17 1021.5 - 0.0 - - - - - - -
16/11:30am 16.6 ENE 12 15 1021.6 - 0.0 - - - - - - -
16/11:00am 16.1 ENE 12 16 1021.7 - 0.0 - - - - - - -
16/10:30am 15.9 ENE 12 15 1021.8 - 0.0 - - - - - - -
16/10:00am 17.0 NE 12 16 1022.0 - 0.0 - - - - - - -
16/09:30am 17.0 NE 11 16 1022.0 - 0.0 - - - - - - -
16/09:00am 16.7 NE 12 16 1022.2 - 0.2 - - - - - - -
16/08:30am 16.2 NE 11 15 1022.3 - 0.2 - - - - - - -
16/08:00am 15.7 NE 9 13 1022.3 - 0.2 - - - - - - -
16/07:30am 15.5 NNE 9 12 1022.2 - 0.2 - - - - - - -
16/07:00am 15.6 NNE 10 13 1021.9 - 0.2 - - - - - - -
16/06:30am 15.6 NNE 11 16 1021.7 - 0.2 - - - - - - -
16/06:00am 15.2 NNE 11 14 1021.7 - 0.2 - - - - - - -
16/05:30am 15.6 NNE 10 15 1021.9 - 0.2 - - - - - - -
16/05:00am 15.6 NNE 11 14 1021.9 - 0.2 - - - - - - -
16/04:30am 15.4 NNE 10 15 1021.8 - 0.2 - - - - - - -
16/04:00am 15.2 NNE 11 15 1021.8 - 0.0 - - - - - - -
16/03:30am 15.1 NE 9 13 1021.8 - 0.0 - - - - - - -
16/03:00am 15.2 NE 12 15 1022.0 - 0.0 - - - - - - -
16/02:30am 15.3 NE 10 13 1022.4 - 0.0 - - - - - - -
16/02:00am 15.5 NNE 10 13 1022.7 - 0.0 - - - - - - -
16/01:30am 15.9 NNE 10 14 1023.0 - 0.0 - - - - - - -
16/01:00am 16.0 NNE 8 13 1023.1 - 0.0 - - - - - - -
16/12:30am 15.8 NNE 10 13 1023.3 - 0.0 - - - - - - -
16/12:00am 16.2 NNE 10 14 1023.5 - 0.0 - - - - - - -
 
Date/Time
EST
Temp

°C
Wind Pressure Rain
since 9am
mm
Weather Cloud Vis
km
Sea
Height
m
Swell
Dir
 
Speed
knots
Gust
knots
hPa Trend Height
m
Period
s
Dir
15/11:30pm 16.1 NNE 12 15 1023.6 - 0.0 - - - - - - -
15/11:00pm 16.1 NNE 10 14 1023.8 - 0.0 - - - - - - -
15/10:30pm 15.9 NE 10 14 1023.9 - 0.0 - - - - - - -
15/10:00pm 16.0 NNE 10 14 1024.0 - 0.0 - - - - - - -
15/09:30pm 14.9 ENE 8 11 1024.1 - 0.0 - - - - - - -
15/09:00pm 14.7 ENE 10 13 1024.2 - 0.0 - - - - - - -
15/08:30pm 15.0 ENE 10 15 1024.1 - 0.0 - - - - - - -
15/08:00pm 14.6 ENE 11 14 1024.1 - 0.0 - - - - - - -
15/07:30pm 13.5 ENE 8 10 1024.3 - 0.0 - - - - - - -
15/07:00pm 13.3 E 8 10 1024.1 - 0.0 - - - - - - -
15/06:30pm 13.7 ENE 7 9 1023.9 - 0.0 - - - - - - -
15/06:00pm 14.4 ENE 10 13 1023.7 - 0.0 - - - - - - -
15/05:30pm 15.1 ENE 12 15 1023.4 - 0.0 - - - - - - -
15/05:00pm 15.6 ENE 12 16 1023.2 - 0.0 - - - - - - -
15/04:30pm 16.5 ENE 12 16 1023.1 - 0.0 - - - - - - -
15/04:00pm 17.4 NE 12 15 1023.1 - 0.0 - - - - - - -
15/03:30pm 16.8 ENE 12 15 1023.3 - 0.0 - - - - - - -
15/03:00pm 17.8 ENE 10 14 1023.4 - 0.0 - - - - - - -
15/02:30pm 17.4 ENE 10 14 1023.3 - 0.0 - - - - - - -
15/02:00pm 17.6 ENE 11 15 1023.3 - 0.0 - - - - - - -
15/01:30pm 17.9 ENE 11 13 1023.3 - 0.0 - - - - - - -
15/01:00pm 18.7 ENE 11 16 1023.6 - 0.0 - - - - - - -
15/12:30pm 18.5 ENE 10 14 1023.9 - 0.0 - - - - - - -
15/12:00pm 17.8 E 11 15 1024.1 - 0.0 - - - - - - -
15/11:30am 16.6 S 3 6 1024.5 - 0.0 - - - - - - -
15/11:00am 16.3 S 5 7 1024.6 - 0.0 - - - - - - -
15/10:30am 15.8 S 7 8 1024.7 - 0.0 - - - - - - -
15/10:00am 14.9 S 5 7 1024.9 - 0.0 - - - - - - -
15/09:30am 14.7 S 6 7 1024.8 - 0.0 - - - - - - -
15/09:00am 13.3 S 5 7 1024.8 - 0.0 - - - - - - -
15/08:30am 12.0 S 6 7 1024.7 - 0.0 - - - - - - -
15/08:00am 10.8 S 6 8 1024.6 - 0.0 - - - - - - -
15/07:30am 9.3 S 5 7 1024.5 - 0.0 - - - - - - -
15/07:00am 7.7 S 7 8 1024.2 - 0.0 - - - - - - -
15/06:30am 7.7 S 7 8 1024.0 - 0.0 - - - - - - -
15/06:00am 8.1 S 6 7 1023.9 - 0.0 - - - - - - -
15/05:30am 7.5 S 6 7 1023.7 - 0.0 - - - - - - -
15/05:00am 7.9 S 6 8 1023.5 - 0.0 - - - - - - -
15/04:30am 7.3 S 7 7 1023.6 - 0.0 - - - - - - -
15/04:00am 7.2 S 6 7 1023.5 - 0.0 - - - - - - -
15/03:30am 9.0 S 6 8 1023.6 - 0.0 - - - - - - -
15/03:00am 7.8 SSW 6 7 1023.6 - 0.0 - - - - - - -
15/02:30am 7.9 S 6 7 1023.6 - 0.0 - - - - - - -
15/02:00am 7.4 S 7 7 1023.5 - 0.0 - - - - - - -
15/01:30am 7.7 S 7 7 1023.6 - 0.0 - - - - - - -
15/01:00am 8.2 S 6 8 1023.6 - 0.0 - - - - - - -
15/12:30am 8.7 SSW 8 9 1023.6 - 0.0 - - - - - - -
15/12:00am 8.7 SSW 7 8 1023.6 - 0.0 - - - - - - -
 
Date/Time
EST
Temp

°C
Wind Pressure Rain
since 9am
mm
Weather Cloud Vis
km
Sea
Height
m
Swell
Dir
 
Speed
knots
Gust
knots
hPa Trend Height
m
Period
s
Dir
14/11:30pm 8.6 S 7 7 1023.7 - 0.0 - - - - - - -
14/11:00pm 9.7 S 7 9 1023.8 - 0.0 - - - - - - -
14/10:30pm 10.8 SSW 7 9 1024.0 - 0.0 - - - - - - -
14/10:00pm 11.2 SSW 9 10 1024.1 - 0.0 - - - - - - -
14/09:30pm 11.6 SSW 9 10 1024.1 - 0.0 - - - - - - -
14/09:00pm 11.0 SSW 10 11 1024.0 - 0.0 - - - - - - -
14/08:30pm 11.8 SSW 9 10 1024.0 - 0.0 - - - - - - -
14/08:00pm 12.4 SSW 9 11 1023.8 - 0.0 - - - - - - -
14/07:30pm 12.6 SW 9 11 1023.7 - 0.0 - - - - - - -
14/07:00pm 13.7 SW 11 13 1023.6 - 0.0 - - - - - - -
14/06:30pm 14.3 SW 11 14 1023.2 - 0.0 - - - - - - -
14/06:00pm 14.7 SW 10 13 1023.0 - 0.0 - - - - - - -
14/05:30pm 16.1 SW 10 13 1022.7 - 0.0 - - - - - - -
14/05:00pm 18.1 SW 12 15 1022.5 - 0.0 - - - - - - -
14/04:30pm 18.9 WSW 10 12 1022.3 - 0.0 - - - - - - -
14/04:00pm 19.0 SW 11 13 1022.3 - 0.0 - - - - - - -
14/03:30pm 18.2 N 5 7 1022.4 - 0.0 - - - - - - -
14/03:00pm 18.5 N 7 9 1022.3 - 0.0 - - - - - - -
14/02:30pm 19.5 N 8 13 1022.4 - 0.0 - - - - - - -
14/02:00pm 19.8 S 4 8 1022.5 - 0.0 - - - - - - -
14/01:30pm 19.3 S 4 7 1022.7 - 0.0 - - - - - - -
14/01:00pm 19.2 S 4 8 1023.1 - 0.0 - - - - - - -
14/12:30pm 17.7 S 4 7 1023.5 - 0.0 - - - - - - -
14/12:00pm 18.5 S 2 9 1023.9 - 0.0 - - - - - - -
14/11:30am 17.6 S 7 9 1024.1 - 0.0 - - - - - - -
14/11:00am 17.5 S 6 11 1024.1 - 0.0 - - - - - - -
14/10:30am 16.9 S 9 11 1024.3 - 0.0 - - - - - - -
14/10:00am 16.1 S 9 12 1024.4 - 0.0 - - - - - - -
14/09:30am 15.0 S 7 9 1024.4 - 0.0 - - - - - - -
14/09:00am 13.7 SSW 7 9 1024.5 - 0.0 - - - - - - -
14/08:30am 12.0 N 5 6 1024.4 - 0.0 - - - - - - -
14/08:00am 9.8 N 4 5 1024.4 - 0.0 - - - - - - -
14/07:30am 7.5 N 4 5 1024.1 - 0.0 - - - - - - -
14/07:00am 5.6 N 4 5 1024.0 - 0.0 - - - - - - -
14/06:30am 4.8 N 5 6 1023.8 - 0.0 - - - - - - -
14/06:00am 5.9 N 3 4 1023.7 - 0.0 - - - - - - -
14/05:30am 6.2 CALM 0 3 1023.7 - 0.0 - - - - - - -
14/05:00am 5.5 N 4 4 1023.7 - 0.0 - - - - - - -
14/04:30am 6.0 N 4 5 1023.5 - 0.0 - - - - - - -
14/04:00am 6.5 N 5 5 1023.4 - 0.0 - - - - - - -
14/03:30am 6.4 N 4 4 1023.4 - 0.0 - - - - - - -
14/03:00am 6.2 N 4 5 1023.5 - 0.0 - - - - - - -
14/02:30am 6.1 N 4 6 1023.5 - 0.0 - - - - - - -
14/02:00am 7.3 N 6 7 1023.6 - 0.0 - - - - - - -
14/01:30am 6.4 N 5 6 1023.7 - 0.0 - - - - - - -
14/01:00am 6.9 N 4 6 1023.8 - 0.0 - - - - - - -

Other Formats:

Comma delimited format used in spreadsheet applications
http://www.bom.gov.au/fwo/IDV60701/IDV60701.94953.axf

JavaScript Object Notation format (JSON) in row-major order
http://www.bom.gov.au/fwo/IDV60701/IDV60701.94953.json